Time;durP1;ratioP1;P1;durP2;ratioP2;P2;SDS_P1;SDS_P2;PMS_P1;PMS_P2;Temp;Humidity;BMP_temperature;BMP_pressure;BME280_temperature;BME280_humidity;BME280_pressure;Samples;Min_cycle;Max_cycle;Signal;HPM_P1;HPM_P2
2023/10/20 00:00:18;;;;;;;5.70;5.60;;;14.80;99.90;;;;;;5021380;28;20486;-71
2023/10/20 00:02:45;;;;;;;5.97;5.87;;;14.80;99.90;;;;;;5025691;28;20824;-70
2023/10/20 00:05:13;;;;;;;4.80;4.80;;;14.80;99.90;;;;;;5016290;28;20484;-70
2023/10/20 00:07:41;;;;;;;5.00;5.00;;;14.80;99.90;;;;;;5017849;28;20499;-70
2023/10/20 00:10:11;;;;;;;5.23;5.13;;;14.80;99.90;;;;;;5072646;27;20459;-71
2023/10/20 00:12:38;;;;;;;5.30;5.20;;;14.80;99.90;;;;;;5027903;28;20490;-70
2023/10/20 00:15:09;;;;;;;5.50;5.40;;;14.80;99.90;;;;;;5016094;28;20964;-70
2023/10/20 00:17:35;;;;;;;4.97;4.97;;;14.90;99.90;;;;;;5019930;28;20456;-70
2023/10/20 00:20:03;;;;;;;5.97;5.87;;;14.80;99.90;;;;;;5014742;28;20983;-70
2023/10/20 00:22:31;;;;;;;5.43;5.33;;;14.90;99.90;;;;;;5027736;28;20524;-70
2023/10/20 00:24:58;;;;;;;5.37;5.27;;;14.80;99.90;;;;;;5025274;27;21106;-71
2023/10/20 00:27:26;;;;;;;4.80;4.80;;;14.80;99.90;;;;;;5027934;28;20825;-70
2023/10/20 00:29:53;;;;;;;5.27;5.17;;;14.80;99.90;;;;;;5017661;28;20463;-70
2023/10/20 00:32:20;;;;;;;5.53;5.43;;;14.80;99.90;;;;;;5024672;28;20920;-71
2023/10/20 00:34:47;;;;;;;5.50;5.40;;;14.80;99.90;;;;;;5016071;28;20975;-70
2023/10/20 00:37:14;;;;;;;5.37;5.27;;;14.80;99.90;;;;;;5027394;28;20981;-70
2023/10/20 00:39:43;;;;;;;6.43;6.33;;;14.80;99.90;;;;;;5027124;28;20452;-70
2023/10/20 00:42:11;;;;;;;5.50;5.40;;;14.80;99.90;;;;;;5024244;28;20474;-70
2023/10/20 00:44:39;;;;;;;5.50;5.40;;;14.80;99.90;;;;;;5022108;28;20494;-70
2023/10/20 00:47:06;;;;;;;5.87;5.77;;;14.70;99.90;;;;;;5016844;28;20516;-72
2023/10/20 00:49:33;;;;;;;5.57;5.47;;;14.80;99.90;;;;;;5017177;28;20493;-70
2023/10/20 00:52:01;;;;;;;5.60;5.50;;;14.80;99.90;;;;;;5019603;28;20573;-71
2023/10/20 00:54:30;;;;;;;5.87;5.77;;;14.80;99.90;;;;;;5027018;28;20524;-70
2023/10/20 00:56:58;;;;;;;5.60;5.50;;;14.80;99.90;;;;;;5026450;28;20466;-71
2023/10/20 00:59:27;;;;;;;5.00;5.00;;;14.70;99.90;;;;;;5024686;28;20942;-70
2023/10/20 01:01:54;;;;;;;5.70;5.60;;;14.80;99.90;;;;;;5022093;28;20553;-70
2023/10/20 01:04:21;;;;;;;4.90;4.90;;;14.80;99.90;;;;;;5017132;28;20454;-71
2023/10/20 01:06:49;;;;;;;5.47;5.37;;;14.80;99.90;;;;;;5017768;28;20560;-70
2023/10/20 01:09:24;;;;;;;5.17;5.07;;;14.70;99.90;;;;;;5016067;27;20466;-71
2023/10/20 01:11:51;;;;;;;5.83;5.73;;;14.70;99.90;;;;;;5024476;28;20880;-70
2023/10/20 01:14:19;;;;;;;5.10;5.10;;;14.80;99.90;;;;;;5026329;28;20976;-71
2023/10/20 01:16:46;;;;;;;4.97;4.93;;;14.80;99.90;;;;;;5015679;28;21049;-71
2023/10/20 01:19:13;;;;;;;4.70;4.70;;;14.70;99.90;;;;;;5026419;28;20961;-70
2023/10/20 01:21:40;;;;;;;5.57;5.47;;;14.70;99.90;;;;;;5022342;28;20521;-70
2023/10/20 01:24:09;;;;;;;5.20;5.10;;;14.70;99.90;;;;;;5017047;28;20985;-71
2023/10/20 01:26:36;;;;;;;4.80;4.80;;;14.70;99.90;;;;;;5015901;28;20496;-70
2023/10/20 01:29:09;;;;;;;4.53;4.53;;;14.70;99.90;;;;;;5026129;28;20459;-69
2023/10/20 01:31:37;;;;;;;5.00;5.00;;;14.70;99.90;;;;;;5026011;28;20455;-71
2023/10/20 01:34:04;;;;;;;4.80;4.80;;;14.70;99.90;;;;;;5022441;28;21098;-68
2023/10/20 01:36:31;;;;;;;4.50;4.50;;;14.80;99.90;;;;;;5022334;28;20491;-69
2023/10/20 01:38:58;;;;;;;4.53;4.53;;;14.70;99.90;;;;;;5013582;28;21025;-69
2023/10/20 01:41:27;;;;;;;4.60;4.60;;;14.80;99.90;;;;;;5014896;28;20551;-69
2023/10/20 01:43:54;;;;;;;4.47;4.47;;;14.80;99.90;;;;;;5026378;28;20451;-69
2023/10/20 01:46:21;;;;;;;4.03;4.03;;;14.70;99.90;;;;;;5022303;28;20548;-68
2023/10/20 01:48:47;;;;;;;4.43;4.43;;;14.80;99.90;;;;;;5012991;28;20595;-70
2023/10/20 01:51:14;;;;;;;4.63;4.63;;;14.70;99.90;;;;;;5017076;28;20562;-68
2023/10/20 01:53:41;;;;;;;4.20;4.20;;;14.80;99.90;;;;;;5023129;28;20876;-68
2023/10/20 01:56:09;;;;;;;4.77;4.77;;;14.70;99.90;;;;;;5020278;28;20467;-68
2023/10/20 01:58:36;;;;;;;4.83;4.83;;;14.80;99.90;;;;;;5026411;28;20460;-69
2023/10/20 02:01:03;;;;;;;4.53;4.53;;;14.80;99.90;;;;;;5020531;28;20495;-69
2023/10/20 02:03:31;;;;;;;4.60;4.60;;;14.80;99.90;;;;;;5012619;28;20855;-69
2023/10/20 02:05:58;;;;;;;4.60;4.60;;;14.80;99.90;;;;;;5014082;28;20499;-69
2023/10/20 02:08:24;;;;;;;5.40;5.30;;;14.90;99.90;;;;;;5026341;28;20809;-69
2023/10/20 02:10:52;;;;;;;4.63;4.63;;;14.90;99.90;;;;;;5027228;28;20467;-68
2023/10/20 02:13:18;;;;;;;4.80;4.80;;;14.80;99.90;;;;;;5024219;28;20462;-69
2023/10/20 02:15:51;;;;;;;5.00;5.00;;;14.80;99.90;;;;;;5015422;28;20813;-69
2023/10/20 02:18:18;;;;;;;5.37;5.27;;;14.80;99.90;;;;;;5011676;28;20463;-69
2023/10/20 02:20:45;;;;;;;5.60;5.50;;;14.80;99.90;;;;;;5023950;28;20849;-68
2023/10/20 02:23:12;;;;;;;5.10;5.00;;;14.80;99.90;;;;;;5024611;28;20472;-68
2023/10/20 02:25:39;;;;;;;5.63;5.53;;;14.90;99.90;;;;;;5020546;28;20491;-68
2023/10/20 02:28:07;;;;;;;5.30;5.20;;;14.90;99.90;;;;;;5025567;28;20475;-69
2023/10/20 02:30:34;;;;;;;5.40;5.30;;;14.90;99.90;;;;;;5016753;28;20477;-69
2023/10/20 02:33:03;;;;;;;5.07;5.07;;;14.90;99.90;;;;;;5014546;28;20521;-69
2023/10/20 02:35:30;;;;;;;5.23;5.13;;;14.90;99.90;;;;;;5019251;28;20480;-69
2023/10/20 02:37:57;;;;;;;5.43;5.33;;;14.90;99.90;;;;;;5025549;28;20558;-69
2023/10/20 02:40:24;;;;;;;5.50;5.40;;;15.00;99.90;;;;;;5025672;28;20468;-69
2023/10/20 02:42:51;;;;;;;5.00;4.97;;;15.00;99.90;;;;;;5013476;28;20462;-70
2023/10/20 02:45:18;;;;;;;4.77;4.77;;;15.00;99.90;;;;;;5020650;28;20483;-69
2023/10/20 02:47:44;;;;;;;5.33;5.23;;;15.00;99.90;;;;;;5014650;28;20464;-70
2023/10/20 02:50:15;;;;;;;5.30;5.20;;;15.10;99.90;;;;;;5017092;28;20468;-68
2023/10/20 02:52:43;;;;;;;5.00;5.00;;;15.10;99.90;;;;;;5019248;28;20459;-69
2023/10/20 02:55:10;;;;;;;4.90;4.90;;;15.10;99.90;;;;;;5022069;28;20496;-68
2023/10/20 02:57:37;;;;;;;4.60;4.60;;;15.00;99.90;;;;;;5013307;28;20497;-70
2023/10/20 03:00:09;;;;;;;5.23;5.13;;;15.10;99.90;;;;;;5023142;28;20468;-70
2023/10/20 03:02:37;;;;;;;4.43;4.43;;;15.10;99.90;;;;;;5017736;28;20465;-69
2023/10/20 03:05:06;;;;;;;5.40;5.30;;;15.10;99.90;;;;;;5023042;28;20454;-70
2023/10/20 03:07:34;;;;;;;5.33;5.23;;;15.10;99.90;;;;;;5020854;28;20581;-69
2023/10/20 03:10:01;;;;;;;5.43;5.33;;;15.20;99.90;;;;;;5017828;28;20503;-69
2023/10/20 03:12:28;;;;;;;5.57;5.47;;;15.20;99.90;;;;;;5011674;28;20475;-69
2023/10/20 03:14:55;;;;;;;5.87;5.77;;;15.20;99.90;;;;;;5024148;28;20954;-70
2023/10/20 03:17:22;;;;;;;6.37;6.27;;;15.20;99.90;;;;;;5024849;28;20955;-70
2023/10/20 03:19:49;;;;;;;6.80;6.70;;;15.20;99.90;;;;;;5019169;28;20467;-69
2023/10/20 03:22:16;;;;;;;6.50;6.40;;;15.30;99.90;;;;;;5028596;28;20465;-70
2023/10/20 03:24:44;;;;;;;6.53;6.43;;;15.30;99.90;;;;;;5023085;28;20848;-70
2023/10/20 03:27:12;;;;;;;5.70;5.60;;;15.30;99.90;;;;;;5012780;28;20499;-70
2023/10/20 03:29:39;;;;;;;5.63;5.53;;;15.30;99.90;;;;;;5025509;28;21021;-69
2023/10/20 03:32:07;;;;;;;6.67;6.57;;;15.20;99.90;;;;;;5020806;28;21042;-69
2023/10/20 03:34:34;;;;;;;6.07;5.97;;;15.30;99.90;;;;;;5024321;28;20471;-69
2023/10/20 03:37:02;;;;;;;6.50;6.40;;;15.30;99.90;;;;;;5023338;28;20487;-69
2023/10/20 03:39:32;;;;;;;6.17;6.07;;;15.20;99.90;;;;;;5022840;28;20822;-69
2023/10/20 03:42:02;;;;;;;6.70;6.60;;;15.20;99.90;;;;;;5012513;28;20463;-68
2023/10/20 03:44:29;;;;;;;6.53;6.43;;;15.30;99.90;;;;;;5024156;28;20472;-69
2023/10/20 03:46:57;;;;;;;6.03;5.93;;;15.30;99.90;;;;;;5027970;28;20496;-70
2023/10/20 03:49:24;;;;;;;6.00;5.90;;;15.30;99.90;;;;;;5022263;28;20798;-70
2023/10/20 03:51:51;;;;;;;5.93;5.83;;;15.30;99.90;;;;;;5024945;28;20472;-70
2023/10/20 03:54:18;;;;;;;6.10;6.00;;;15.30;99.90;;;;;;5023304;28;20472;-69
2023/10/20 03:56:45;;;;;;;6.37;6.27;;;15.40;99.90;;;;;;5018158;28;20476;-70
2023/10/20 03:59:15;;;;;;;5.50;5.40;;;15.40;99.90;;;;;;5021990;28;20542;-69
2023/10/20 04:01:42;;;;;;;5.77;5.67;;;15.40;99.90;;;;;;5014485;28;20904;-69
2023/10/20 04:04:09;;;;;;;5.93;5.83;;;15.40;99.90;;;;;;5028166;28;20463;-69
2023/10/20 04:06:37;;;;;;;6.10;6.00;;;15.40;99.90;;;;;;5019687;28;20488;-68
2023/10/20 04:09:08;;;;;;;5.50;5.40;;;15.40;99.90;;;;;;5031029;27;20468;-69
2023/10/20 04:11:35;;;;;;;5.43;5.33;;;15.40;99.90;;;;;;5025552;28;20958;-70
2023/10/20 04:14:05;;;;;;;5.80;5.70;;;15.40;99.90;;;;;;5015418;28;21009;-69
2023/10/20 04:16:39;;;;;;;6.23;6.13;;;15.50;99.90;;;;;;5018276;28;20909;-69
2023/10/20 04:19:09;;;;;;;7.23;7.13;;;15.40;99.90;;;;;;5010379;28;20469;-69
2023/10/20 04:21:36;;;;;;;6.60;6.50;;;15.50;99.90;;;;;;5017628;28;20987;-69
2023/10/20 04:24:03;;;;;;;7.10;7.00;;;15.50;99.90;;;;;;5027967;28;20780;-70
2023/10/20 04:26:31;;;;;;;6.70;6.60;;;15.50;99.90;;;;;;5027666;28;20487;-70
2023/10/20 04:29:08;;;;;;;6.70;6.60;;;15.40;99.90;;;;;;5016932;28;20499;-71
2023/10/20 04:42:54;;;;;;;8.60;8.50;;;15.40;99.90;;;;;;5020296;28;20508;-71
2023/10/20 04:48:20;;;;;;;8.57;8.47;;;15.30;99.90;;;;;;5025928;28;20496;-70
2023/10/20 04:51:09;;;;;;;9.40;9.20;;;15.30;99.90;;;;;;5016529;28;20512;-70
2023/10/20 04:53:53;;;;;;;8.93;8.80;;;15.40;99.90;;;;;;5027858;28;20473;-70
2023/10/20 04:56:38;;;;;;;8.80;8.70;;;15.30;99.90;;;;;;5024916;28;20496;-68
2023/10/20 04:59:09;;;;;;;9.33;9.13;;;15.30;99.90;;;;;;5022280;28;20473;-68
2023/10/20 05:01:43;;;;;;;9.40;9.20;;;15.30;99.90;;;;;;5017428;28;20467;-70
2023/10/20 05:04:16;;;;;;;9.57;9.37;;;15.30;99.90;;;;;;5026392;28;20462;-68
2023/10/20 05:06:44;;;;;;;10.90;10.60;;;15.20;99.90;;;;;;5010640;28;20553;-69
2023/10/20 05:09:14;;;;;;;10.30;10.10;;;15.20;99.90;;;;;;5017967;28;20497;-71
2023/10/20 05:11:42;;;;;;;11.40;11.10;;;15.20;99.90;;;;;;5018444;28;20552;-70
2023/10/20 05:14:09;;;;;;;11.23;10.93;;;15.20;99.90;;;;;;5011069;28;20460;-69
2023/10/20 05:16:37;;;;;;;10.80;10.60;;;15.30;99.90;;;;;;5012874;28;21215;-70
2023/10/20 05:19:04;;;;;;;11.10;10.80;;;15.30;99.90;;;;;;5012625;28;20841;-71
2023/10/20 05:21:38;;;;;;;10.43;10.23;;;15.30;99.90;;;;;;5019876;28;20475;-69
2023/10/20 05:24:05;;;;;;;11.50;11.20;;;15.20;99.90;;;;;;5020256;28;20477;-70
2023/10/20 05:26:32;;;;;;;11.30;11.00;;;15.20;99.90;;;;;;5011817;28;20487;-70
2023/10/20 05:28:59;;;;;;;11.43;11.13;;;15.20;99.90;;;;;;5012793;28;20925;-71
2023/10/20 05:31:26;;;;;;;11.63;11.33;;;15.30;99.90;;;;;;5014509;28;20470;-70
2023/10/20 05:33:54;;;;;;;11.27;10.97;;;15.20;99.90;;;;;;5010347;28;21021;-69
2023/10/20 05:36:20;;;;;;;10.80;10.60;;;15.20;99.90;;;;;;5019925;28;20470;-69
2023/10/20 05:38:48;;;;;;;11.37;11.07;;;15.20;99.90;;;;;;5023043;28;20456;-70
2023/10/20 05:41:15;;;;;;;11.70;11.40;;;15.20;99.90;;;;;;5017390;28;20860;-69
2023/10/20 05:43:42;;;;;;;11.40;11.10;;;15.20;99.90;;;;;;5016408;28;20491;-69
2023/10/20 05:46:15;;;;;;;10.50;10.30;;;15.20;99.90;;;;;;5012278;28;20480;-68
2023/10/20 05:48:42;;;;;;;12.30;12.00;;;15.20;99.90;;;;;;5014332;28;20556;-68
2023/10/20 05:51:09;;;;;;;12.20;11.90;;;15.20;99.90;;;;;;5009796;28;20871;-71
2023/10/20 05:53:37;;;;;;;11.70;11.40;;;15.20;99.90;;;;;;5021423;28;20562;-70
2023/10/20 05:56:06;;;;;;;11.80;11.50;;;15.20;99.90;;;;;;5043956;27;20570;-70
2023/10/20 05:58:34;;;;;;;11.37;11.07;;;15.20;99.90;;;;;;5047408;27;20464;-69
2023/10/20 06:01:09;;;;;;;10.33;10.13;;;15.20;99.90;;;;;;5015567;28;20837;-69
2023/10/20 06:03:37;;;;;;;10.77;10.57;;;15.20;99.90;;;;;;5011994;28;20554;-69
2023/10/20 06:06:04;;;;;;;10.20;10.00;;;15.20;99.90;;;;;;5021415;28;20872;-69
2023/10/20 06:08:31;;;;;;;10.33;10.13;;;15.20;99.90;;;;;;5017582;28;20497;-70
2023/10/20 06:11:02;;;;;;;10.50;10.30;;;15.10;99.90;;;;;;5005874;28;21013;-69
2023/10/20 06:13:32;;;;;;;10.00;9.80;;;15.20;99.90;;;;;;5024773;28;20480;-69
2023/10/20 06:16:08;;;;;;;10.53;10.33;;;15.20;99.90;;;;;;5022878;28;20501;-70
2023/10/20 06:18:35;;;;;;;10.17;9.97;;;15.10;99.90;;;;;;5008369;28;20825;-69
2023/10/20 06:21:02;;;;;;;10.33;10.13;;;15.20;99.90;;;;;;5018393;28;20857;-71
2023/10/20 06:23:29;;;;;;;10.23;10.03;;;15.10;99.90;;;;;;5015808;28;20545;-71
2023/10/20 06:25:57;;;;;;;10.60;10.40;;;15.10;99.90;;;;;;5015295;28;20933;-70
2023/10/20 06:28:23;;;;;;;11.00;10.80;;;15.20;99.90;;;;;;5012733;28;20588;-69
2023/10/20 06:30:53;;;;;;;12.03;11.73;;;15.20;99.90;;;;;;5019830;28;20459;-71
2023/10/20 06:33:20;;;;;;;11.03;10.83;;;15.20;99.90;;;;;;5009922;28;20476;-70
2023/10/20 06:35:52;;;;;;;10.90;10.70;;;15.20;99.90;;;;;;5008839;28;20468;-70
2023/10/20 06:38:25;;;;;;;10.97;10.77;;;15.20;99.90;;;;;;5010613;28;20549;-71
2023/10/20 06:40:53;;;;;;;11.37;11.07;;;15.20;99.90;;;;;;5013834;28;20472;-70
2023/10/20 06:43:20;;;;;;;10.83;10.63;;;15.20;99.90;;;;;;5018390;28;20464;-69
2023/10/20 06:45:57;;;;;;;10.60;10.40;;;15.20;99.90;;;;;;5014680;28;20496;-69
2023/10/20 06:48:24;;;;;;;10.40;10.20;;;15.10;99.90;;;;;;5010751;28;20495;-70
2023/10/20 06:50:52;;;;;;;9.80;9.60;;;15.10;99.90;;;;;;5022825;28;20461;-71
2023/10/20 06:53:19;;;;;;;10.23;10.03;;;15.10;99.90;;;;;;5015238;28;20855;-69
2023/10/20 06:55:47;;;;;;;9.73;9.53;;;15.10;99.90;;;;;;5021259;28;20489;-71
2023/10/20 06:58:17;;;;;;;9.33;9.13;;;15.10;99.90;;;;;;5021599;28;20460;-71
2023/10/20 07:00:45;;;;;;;8.93;8.83;;;15.10;99.90;;;;;;5016046;28;20461;-70
2023/10/20 07:03:13;;;;;;;8.90;8.80;;;15.10;99.90;;;;;;5030471;28;20760;-71
2023/10/20 07:05:41;;;;;;;8.57;8.47;;;15.00;99.90;;;;;;5053598;28;20461;-71
2023/10/20 07:08:08;;;;;;;8.10;8.00;;;15.00;99.90;;;;;;5023069;28;20494;-70
2023/10/20 07:10:37;;;;;;;8.73;8.63;;;15.00;99.90;;;;;;5057785;27;20459;-70
2023/10/20 07:13:07;;;;;;;8.73;8.63;;;15.00;99.90;;;;;;5038180;28;20545;-70
2023/10/20 07:15:34;;;;;;;7.90;7.80;;;15.00;99.90;;;;;;5040346;28;20557;-71
2023/10/20 07:18:02;;;;;;;9.40;9.20;;;15.00;99.90;;;;;;5072185;27;20486;-71
2023/10/20 07:20:32;;;;;;;8.77;8.67;;;15.00;99.90;;;;;;5039261;28;20527;-70
2023/10/20 07:22:59;;;;;;;8.40;8.30;;;15.00;99.90;;;;;;5017473;28;20503;-72
2023/10/20 07:25:26;;;;;;;9.53;9.33;;;15.00;99.90;;;;;;5033187;28;20520;-72
2023/10/20 07:27:53;;;;;;;9.00;8.90;;;15.00;99.90;;;;;;5057424;28;20511;-72
2023/10/20 07:30:36;;;;;;;8.17;8.07;;;15.00;99.90;;;;;;5054101;28;20782;-72
2023/10/20 07:33:03;;;;;;;8.70;8.60;;;14.90;99.90;;;;;;5017026;28;20472;-72
2023/10/20 07:35:32;;;;;;;8.30;8.20;;;14.90;99.90;;;;;;5036422;28;20554;-71
2023/10/20 07:37:59;;;;;;;8.90;8.80;;;14.90;99.90;;;;;;5018540;28;20658;-72
2023/10/20 07:40:26;;;;;;;9.13;9.03;;;14.90;99.90;;;;;;5018547;28;20463;-71
2023/10/20 07:42:54;;;;;;;8.63;8.53;;;14.90;99.90;;;;;;5021416;28;20488;-72
2023/10/20 07:45:20;;;;;;;8.83;8.73;;;15.00;99.90;;;;;;5021420;28;20483;-72
2023/10/20 07:47:47;;;;;;;8.43;8.33;;;15.00;99.90;;;;;;5005854;28;20496;-72
2023/10/20 07:50:14;;;;;;;8.17;8.07;;;15.00;99.90;;;;;;5020266;28;20465;-72
2023/10/20 07:52:42;;;;;;;8.00;7.90;;;15.00;99.90;;;;;;5009792;28;20530;-70
2023/10/20 07:55:09;;;;;;;8.70;8.60;;;15.00;99.90;;;;;;5016070;28;20827;-71
2023/10/20 07:57:36;;;;;;;7.63;7.53;;;15.00;99.90;;;;;;5011558;28;20472;-71
2023/10/20 08:00:04;;;;;;;7.57;7.47;;;14.90;99.90;;;;;;5017514;28;20512;-73
2023/10/20 08:02:31;;;;;;;7.63;7.53;;;15.00;99.90;;;;;;5012975;28;20593;-70
2023/10/20 08:04:58;;;;;;;9.07;8.97;;;15.00;99.90;;;;;;5014531;28;20463;-70
2023/10/20 08:07:25;;;;;;;8.50;8.40;;;14.90;99.90;;;;;;5021626;28;20860;-71
2023/10/20 08:09:53;;;;;;;8.13;8.03;;;14.90;99.90;;;;;;5033613;27;20456;-70
2023/10/20 08:12:19;;;;;;;9.37;9.17;;;14.90;99.90;;;;;;5012195;28;20459;-71
2023/10/20 08:14:47;;;;;;;8.60;8.50;;;15.00;99.90;;;;;;5016859;28;20571;-71
2023/10/20 08:17:14;;;;;;;8.67;8.57;;;15.00;99.90;;;;;;5023003;27;20590;-71
2023/10/20 08:19:46;;;;;;;8.97;8.87;;;15.00;99.90;;;;;;5020050;27;20459;-72
2023/10/20 08:22:12;;;;;;;9.57;9.37;;;15.00;99.90;;;;;;5020037;28;20462;-73
2023/10/20 08:24:40;;;;;;;10.87;10.67;;;15.00;99.90;;;;;;5020384;28;20459;-71
2023/10/20 08:27:09;;;;;;;9.23;9.10;;;15.10;99.90;;;;;;5015698;28;20864;-71
2023/10/20 08:29:35;;;;;;;9.50;9.30;;;15.00;99.90;;;;;;5021880;28;20556;-72
2023/10/20 08:32:03;;;;;;;8.50;8.40;;;15.00;99.90;;;;;;5024489;28;20457;-72
2023/10/20 08:34:32;;;;;;;10.17;9.97;;;15.10;99.90;;;;;;5017512;28;20460;-71
2023/10/20 08:36:59;;;;;;;9.57;9.37;;;15.10;99.90;;;;;;5019219;28;20500;-71
2023/10/20 08:39:27;;;;;;;10.27;10.07;;;15.10;99.90;;;;;;5012846;27;21298;-70
2023/10/20 08:41:54;;;;;;;9.53;9.33;;;15.20;99.90;;;;;;5019614;28;20458;-70
2023/10/20 08:44:23;;;;;;;10.40;10.20;;;15.20;99.90;;;;;;5017606;28;20576;-71
2023/10/20 08:46:53;;;;;;;10.10;9.90;;;15.20;99.90;;;;;;5022986;28;21019;-70
2023/10/20 08:49:21;;;;;;;11.10;10.90;;;15.20;99.90;;;;;;5020574;27;20580;-70
2023/10/20 08:51:49;;;;;;;10.60;10.40;;;15.20;99.90;;;;;;5016850;27;20468;-70
2023/10/20 08:54:19;;;;;;;10.30;10.10;;;15.20;99.90;;;;;;5024430;28;20454;-70
2023/10/20 08:56:46;;;;;;;11.60;11.30;;;15.20;99.90;;;;;;5017388;28;20775;-70
2023/10/20 08:59:13;;;;;;;10.70;10.50;;;15.30;99.90;;;;;;5024818;28;20469;-71
2023/10/20 09:01:44;;;;;;;10.63;10.43;;;15.20;99.90;;;;;;5020914;27;20517;-71
2023/10/20 09:04:22;;;;;;;12.33;12.03;;;15.20;99.90;;;;;;5016344;28;20472;-71
2023/10/20 09:06:49;;;;;;;11.30;11.00;;;15.30;99.90;;;;;;5010275;27;20827;-72
2023/10/20 09:09:17;;;;;;;11.23;10.93;;;15.30;99.90;;;;;;5016205;28;20539;-71
2023/10/20 09:11:44;;;;;;;10.50;10.30;;;15.20;99.90;;;;;;5012603;28;20550;-71
2023/10/20 09:14:12;;;;;;;10.63;10.43;;;15.10;99.90;;;;;;5019748;28;20476;-72
2023/10/20 09:16:41;;;;;;;10.50;10.30;;;15.20;99.90;;;;;;5013391;28;20461;-71
2023/10/20 09:19:11;;;;;;;10.40;10.20;;;15.10;99.90;;;;;;5014369;28;20738;-71
2023/10/20 09:21:40;;;;;;;9.97;9.77;;;15.10;99.90;;;;;;5024948;28;20543;-73
2023/10/20 09:24:08;;;;;;;10.57;10.37;;;15.10;99.90;;;;;;5014605;28;20473;-71
2023/10/20 09:26:36;;;;;;;11.40;11.10;;;15.00;99.90;;;;;;5013173;27;20468;-72
2023/10/20 09:29:05;;;;;;;10.87;10.67;;;15.10;99.90;;;;;;5019074;28;21010;-73
2023/10/20 09:31:33;;;;;;;11.33;11.07;;;15.10;99.90;;;;;;5011430;28;20499;-70
2023/10/20 09:34:04;;;;;;;10.70;10.50;;;15.10;99.90;;;;;;5011590;28;20475;-70
2023/10/20 09:36:31;;;;;;;10.83;10.63;;;15.00;99.90;;;;;;5020465;27;20478;-71
2023/10/20 09:38:59;;;;;;;11.10;10.87;;;15.10;99.90;;;;;;5010925;28;20477;-71
2023/10/20 09:41:28;;;;;;;11.30;11.00;;;15.10;99.90;;;;;;5017329;27;20573;-70
2023/10/20 09:44:02;;;;;;;10.47;10.27;;;15.10;99.90;;;;;;5017068;27;20493;-70
2023/10/20 09:46:46;;;;;;;10.17;9.97;;;15.10;99.90;;;;;;5024622;28;20483;-71
2023/10/20 09:49:19;;;;;;;10.23;10.03;;;15.10;99.90;;;;;;5014999;28;20519;-69
2023/10/20 09:51:47;;;;;;;11.63;11.33;;;15.10;99.90;;;;;;5021104;28;20955;-71
2023/10/20 09:54:16;;;;;;;10.30;10.10;;;15.20;99.90;;;;;;5010794;28;20476;-69
2023/10/20 09:56:45;;;;;;;10.07;9.87;;;15.20;99.90;;;;;;5019136;28;20469;-69
2023/10/20 09:59:18;;;;;;;10.83;10.63;;;15.10;99.90;;;;;;5009147;28;20465;-69
2023/10/20 10:01:45;;;;;;;10.70;10.50;;;15.20;99.90;;;;;;5024634;27;20551;-70
2023/10/20 10:04:13;;;;;;;10.10;9.90;;;15.20;99.90;;;;;;5013796;28;21036;-72
2023/10/20 10:06:45;;;;;;;9.43;9.23;;;15.20;99.90;;;;;;5018320;28;20467;-70
2023/10/20 10:09:15;;;;;;;9.53;9.33;;;15.20;99.90;;;;;;5040673;27;20485;-71
2023/10/20 10:11:44;;;;;;;8.77;8.67;;;15.20;99.90;;;;;;5022271;28;20450;-71
2023/10/20 10:14:19;;;;;;;10.13;9.93;;;15.20;99.90;;;;;;5011332;28;20465;-70
2023/10/20 10:16:52;;;;;;;9.30;9.10;;;15.30;99.90;;;;;;5021637;28;20465;-70
2023/10/20 10:19:21;;;;;;;9.63;9.43;;;15.30;99.90;;;;;;5022453;28;20471;-72
2023/10/20 10:21:53;;;;;;;9.43;9.23;;;15.30;99.90;;;;;;5015527;28;20545;-70
2023/10/20 10:24:21;;;;;;;10.23;10.03;;;15.30;99.90;;;;;;5020311;28;20462;-70
2023/10/20 10:26:53;;;;;;;9.47;9.27;;;15.40;99.90;;;;;;5015233;28;20450;-69
2023/10/20 10:29:41;;;;;;;9.70;9.50;;;15.40;99.90;;;;;;5018496;28;20484;-70
2023/10/20 10:32:11;;;;;;;9.80;9.60;;;15.40;99.90;;;;;;5021843;28;20452;-69
2023/10/20 10:34:43;;;;;;;10.73;10.53;;;15.40;99.90;;;;;;5015579;28;20468;-73
2023/10/20 10:37:10;;;;;;;11.37;11.07;;;15.50;99.90;;;;;;5018409;28;20485;-71
2023/10/20 10:39:37;;;;;;;10.83;10.63;;;15.50;99.90;;;;;;5013309;28;20566;-73
2023/10/20 10:42:04;;;;;;;9.80;9.60;;;15.50;99.90;;;;;;5009839;28;20563;-73
2023/10/20 10:44:34;;;;;;;9.67;9.47;;;15.50;99.90;;;;;;5023233;28;20855;-71
2023/10/20 10:47:03;;;;;;;9.40;9.20;;;15.60;99.90;;;;;;5009576;28;20877;-70
2023/10/20 10:49:30;;;;;;;10.07;9.87;;;15.60;99.90;;;;;;5007582;28;20521;-71
2023/10/20 10:51:58;;;;;;;9.30;9.10;;;15.50;99.90;;;;;;5023654;28;20457;-70
2023/10/20 10:54:27;;;;;;;9.20;9.00;;;15.50;99.90;;;;;;5023496;28;20472;-71
2023/10/20 10:56:54;;;;;;;8.80;8.70;;;15.50;99.90;;;;;;5018679;28;20939;-72
2023/10/20 10:59:21;;;;;;;9.23;9.03;;;15.40;99.90;;;;;;5017908;28;20833;-70
2023/10/20 11:01:48;;;;;;;9.03;8.90;;;15.40;99.90;;;;;;5022784;28;20456;-71
2023/10/20 11:04:15;;;;;;;8.90;8.80;;;15.40;99.90;;;;;;5011352;28;21168;-70
2023/10/20 11:06:43;;;;;;;9.33;9.13;;;15.40;99.90;;;;;;5013854;28;20472;-69
2023/10/20 11:09:14;;;;;;;7.90;7.80;;;15.30;99.90;;;;;;5034610;28;20479;-71
2023/10/20 11:11:45;;;;;;;7.60;7.50;;;15.20;99.90;;;;;;5016004;28;20865;-71
2023/10/20 11:14:13;;;;;;;8.30;8.20;;;15.20;99.90;;;;;;5022405;28;20468;-71
2023/10/20 11:16:40;;;;;;;8.37;8.27;;;15.30;99.90;;;;;;5023757;28;20946;-71
2023/10/20 11:19:07;;;;;;;8.83;8.73;;;15.20;99.90;;;;;;5009572;28;20466;-70
2023/10/20 11:21:45;;;;;;;9.57;9.37;;;15.20;99.90;;;;;;5004001;28;20468;-69
2023/10/20 11:24:25;;;;;;;9.23;9.03;;;15.20;99.90;;;;;;5022476;28;20471;-70
2023/10/20 11:26:56;;;;;;;9.60;9.40;;;15.20;99.90;;;;;;5007035;28;20558;-70
2023/10/20 11:29:25;;;;;;;9.20;9.00;;;15.30;99.90;;;;;;5013680;28;20517;-71
2023/10/20 11:31:52;;;;;;;9.97;9.77;;;15.20;99.90;;;;;;5021917;28;20471;-70
2023/10/20 11:34:19;;;;;;;9.57;9.37;;;15.20;99.90;;;;;;5008599;28;20476;-69
2023/10/20 11:36:46;;;;;;;10.00;9.80;;;15.20;99.90;;;;;;5013799;28;20477;-68
2023/10/20 11:39:15;;;;;;;9.43;9.23;;;15.20;99.90;;;;;;5019422;28;20456;-71
2023/10/20 11:41:42;;;;;;;9.77;9.57;;;15.30;99.90;;;;;;5022542;28;20494;-70
2023/10/20 11:44:09;;;;;;;8.53;8.43;;;15.30;99.90;;;;;;5017029;28;20862;-70
2023/10/20 11:46:36;;;;;;;8.60;8.50;;;15.30;99.90;;;;;;5025487;28;20460;-70
2023/10/20 11:49:03;;;;;;;8.53;8.43;;;15.30;99.90;;;;;;5025310;27;20566;-69
2023/10/20 11:51:30;;;;;;;8.80;8.70;;;15.20;99.90;;;;;;5025861;27;20462;-71
2023/10/20 11:53:57;;;;;;;8.40;8.30;;;15.20;99.90;;;;;;5014975;28;20566;-71
2023/10/20 11:56:26;;;;;;;9.10;9.00;;;15.30;99.90;;;;;;5010535;28;20457;-71
2023/10/20 11:58:53;;;;;;;8.90;8.80;;;15.30;99.90;;;;;;5026189;27;20887;-70
2023/10/20 12:01:20;;;;;;;8.73;8.63;;;15.30;99.90;;;;;;5026577;27;20455;-71
2023/10/20 12:03:47;;;;;;;8.53;8.43;;;15.20;99.90;;;;;;5020823;28;20472;-71
2023/10/20 12:06:14;;;;;;;9.90;9.70;;;15.20;99.90;;;;;;5027389;27;20459;-71
2023/10/20 12:08:41;;;;;;;9.00;8.90;;;15.30;99.90;;;;;;5028134;27;20476;-72
2023/10/20 12:11:08;;;;;;;10.60;10.40;;;15.20;99.90;;;;;;5020340;27;20476;-71
2023/10/20 12:13:37;;;;;;;10.80;10.60;;;15.30;99.90;;;;;;5024244;28;20565;-70
2023/10/20 12:16:05;;;;;;;13.07;12.67;;;15.30;99.90;;;;;;5015264;28;20895;-70
2023/10/20 12:18:32;;;;;;;12.30;12.00;;;15.30;99.90;;;;;;5019439;28;20481;-70
2023/10/20 12:20:59;;;;;;;11.87;11.57;;;15.30;99.90;;;;;;5018404;28;20460;-73
2023/10/20 12:23:26;;;;;;;11.47;11.17;;;15.30;99.90;;;;;;5018306;28;20476;-71
2023/10/20 12:25:53;;;;;;;10.90;10.70;;;15.40;99.90;;;;;;5017973;28;20460;-72
2023/10/20 12:28:20;;;;;;;11.53;11.23;;;15.30;99.90;;;;;;5016565;27;20471;-72
2023/10/20 12:30:49;;;;;;;11.17;10.87;;;15.30;99.90;;;;;;5015658;28;20471;-72
2023/10/20 12:33:16;;;;;;;10.43;10.23;;;15.40;99.90;;;;;;5022675;27;20471;-71
2023/10/20 12:35:43;;;;;;;10.60;10.40;;;15.30;99.90;;;;;;5015802;28;20473;-70
2023/10/20 12:38:12;;;;;;;11.63;11.33;;;15.30;99.90;;;;;;5019978;28;20511;-71
2023/10/20 12:40:40;;;;;;;11.20;10.90;;;15.30;99.90;;;;;;5011864;28;20467;-71
2023/10/20 12:43:10;;;;;;;11.33;11.03;;;15.40;99.90;;;;;;5018358;28;20453;-71
2023/10/20 12:45:37;;;;;;;12.70;12.30;;;15.40;99.90;;;;;;5019898;28;20631;-71
2023/10/20 12:48:06;;;;;;;11.47;11.17;;;15.40;99.90;;;;;;5013872;28;20517;-72
2023/10/20 12:50:33;;;;;;;11.07;10.80;;;15.40;99.90;;;;;;5022693;28;20501;-72
2023/10/20 12:53:01;;;;;;;10.40;10.20;;;15.40;99.90;;;;;;5026122;27;20456;-71
2023/10/20 12:55:28;;;;;;;9.47;9.27;;;15.40;99.90;;;;;;5010696;27;20480;-73
2023/10/20 12:57:56;;;;;;;10.60;10.40;;;15.30;99.90;;;;;;5021361;28;20486;-72
2023/10/20 13:00:25;;;;;;;10.67;10.47;;;15.40;99.90;;;;;;5018414;28;20457;-72